Bc Singapore — V2ET7 — position and weather

sailwx.info

Track history (hours):
 
Tides and Currents Weather Stations Pressure Air Temp Water Temp Dewpoint Dewpoint Depression Visibility Wind Speed Wind Dir Waves Ship Positions

Bc Singapore

Last reported at 2018-Jun-19 04:53 UTC. Time now 2018-Jun-25 19:37 UTC.
Position N 14°16' W 061°14'.

Length 148 m; draft 8.3 m.

Type: Ship (hazmat cat C). MMSI: 305548000.

Date/timePositionNaut miles runAvg speedWind from/ knotsBaromVisibWave heightAir tempDewpointWater temp
2018-Jun-19 04:53N 14°16' W 061°14'512.6
2018-Jun-19 04:30N 14°21' W 061°12'611.7
2018-Jun-19 04:01N 14°26' W 061°11'510.9
2018-Jun-19 03:31N 14°31' W 061°09'510.1
2018-Jun-19 03:00N 14°35' W 061°05'2 3.7
2018-Jun-19 02:30N 14°36' W 061°03'0 0.0
2018-Jun-19 02:00N 14°36' W 061°03'0 0.0
2018-Jun-19 01:18N 14°36' W 061°03'0 0.0
2018-Jun-19 00:36N 14°36' W 061°03'0 0.1
2018-Jun-19 00:24N 14°36' W 061°03'0 0.0
2018-Jun-19 00:00N 14°36' W 061°03'0 0.0
2018-Jun-18 23:30N 14°36' W 061°03'0 0.0
2018-Jun-18 23:00N 14°36' W 061°03'0 0.0
2018-Jun-18 22:30N 14°36' W 061°03'0 0.0
2018-Jun-18 22:00N 14°36' W 061°03'0 0.0
2018-Jun-18 21:30N 14°36' W 061°03'0 0.0
2018-Jun-18 21:00N 14°36' W 061°03'0 0.0
2018-Jun-18 20:27N 14°36' W 061°03'0 0.0
2018-Jun-18 20:00N 14°36' W 061°03'0 0.0
2018-Jun-18 19:27N 14°36' W 061°03'0 0.0
2018-Jun-18 19:00N 14°36' W 061°03'0 0.0
2018-Jun-18 18:30N 14°36' W 061°03'0 0.0
2018-Jun-18 18:00N 14°36' W 061°03'0 0.0
2018-Jun-18 17:30N 14°36' W 061°03'0 0.0
2018-Jun-18 17:00N 14°36' W 061°03'0 0.0
2018-Jun-18 16:30N 14°36' W 061°03'0 0.0
2018-Jun-18 16:00N 14°36' W 061°03'0 0.0
2018-Jun-18 15:30N 14°36' W 061°03'0 0.0
2018-Jun-18 14:54N 14°36' W 061°03'0 0.0
2018-Jun-18 14:30N 14°36' W 061°03'0 0.0
2018-Jun-18 14:00N 14°36' W 061°03'0 0.0
2018-Jun-18 13:30N 14°36' W 061°03'0 0.0
2018-Jun-18 13:00N 14°36' W 061°03'0 0.0
2018-Jun-18 12:30N 14°36' W 061°03'0 0.0
2018-Jun-18 12:00N 14°36' W 061°03'0 0.0
2018-Jun-18 11:21N 14°36' W 061°03'0 0.0
2018-Jun-18 11:00N 14°36' W 061°03'0 0.0
2018-Jun-18 10:30N 14°36' W 061°03'0 0.2
2018-Jun-18 10:00N 14°35' W 061°03'2 4.7
2018-Jun-18 09:30N 14°35' W 061°06'2 4.3
2018-Jun-18 09:00N 14°35' W 061°08'2 4.2
2018-Jun-18 08:30N 14°35' W 061°10'3 4.1
2018-Jun-18 07:52N 14°35' W 061°13'2 5.3
2018-Jun-18 07:30N 14°35' W 061°15'4 7.0
2018-Jun-18 07:00N 14°35' W 061°18'3 6.8
2018-Jun-18 06:30N 14°36' W 061°22'3 6.7
2018-Jun-18 06:00N 14°37' W 061°25'510.0
2018-Jun-18 05:30N 14°42' W 061°26'167 8.9
2018-Jun-17 10:42N 17°07' W 062°52'2 9.4
2018-Jun-17 10:29N 17°09' W 062°53'6 9.6
2018-Jun-17 09:53N 17°14' W 062°56'8 9.5
2018-Jun-17 08:59N 17°21' W 063°01'5 9.4
2018-Jun-17 08:30N 17°25' W 063°03'6 9.1
2018-Jun-17 07:51N 17°31' W 063°05'4 9.6
2018-Jun-17 07:29N 17°34' W 063°05'5 9.7
2018-Jun-17 06:57N 17°39' W 063°05'4 9.5
2018-Jun-17 06:30N 17°44' W 063°05'5 9.3
2018-Jun-17 06:00N 17°48' W 063°05'5 9.3
2018-Jun-17 05:27N 17°53' W 063°05'5 9.3
2018-Jun-17 04:58N 17°58' W 063°05'3 7.2
2018-Jun-17 04:30N 18°00' W 063°03'0 0.6
2018-Jun-17 03:52N 18°01' W 063°03'0 0.0
2018-Jun-17 03:22N 18°01' W 063°03'0 0.0
2018-Jun-17 02:40N 18°01' W 063°03'0 0.0
2018-Jun-17 01:22N 18°01' W 063°03'0 0.0
2018-Jun-17 00:52N 18°01' W 063°03'0 0.0
2018-Jun-17 00:25N 18°01' W 063°03'0 0.0
2018-Jun-16 23:55N 18°01' W 063°03'0 0.0
2018-Jun-16 22:41N 18°01' W 063°03'0 0.0
2018-Jun-16 22:25N 18°01' W 063°03'0 0.0
2018-Jun-16 21:58N 18°01' W 063°03'0 0.0
2018-Jun-16 21:28N 18°01' W 063°03'0 0.0
2018-Jun-16 20:58N 18°01' W 063°03'0 0.0
2018-Jun-16 20:25N 18°01' W 063°03'0 0.0
2018-Jun-16 19:01N 18°01' W 063°03'0 0.0
2018-Jun-16 18:13N 18°01' W 063°03'0 0.0
2018-Jun-16 17:58N 18°01' W 063°03'0 0.0
2018-Jun-16 17:04N 18°01' W 063°03'0 0.0
2018-Jun-16 16:58N 18°01' W 063°03'0 0.0
2018-Jun-16 16:28N 18°01' W 063°03'0 0.0
2018-Jun-16 15:34N 18°01' W 063°03'0 0.0
2018-Jun-16 15:19N 18°01' W 063°03'0 0.0
2018-Jun-16 14:46N 18°01' W 063°03'0 0.0
2018-Jun-16 14:22N 18°01' W 063°03'0 0.0
2018-Jun-16 13:52N 18°01' W 063°03'0 0.0
2018-Jun-16 13:22N 18°01' W 063°03'0 0.0
2018-Jun-16 12:52N 18°01' W 063°03'0 0.0
2018-Jun-16 12:22N 18°01' W 063°03'0 0.0
2018-Jun-16 11:52N 18°01' W 063°03'0 0.0
2018-Jun-16 11:22N 18°01' W 063°03'0 0.0
2018-Jun-16 10:55N 18°01' W 063°03'0 0.0
2018-Jun-16 10:25N 18°01' W 063°03'0 0.0
2018-Jun-16 09:49N 18°01' W 063°03'0 0.0
2018-Jun-16 09:25N 18°01' W 063°03'2 4.1
2018-Jun-16 08:56N 18°00' W 063°05'3 6.6
2018-Jun-16 08:30N 17°57' W 063°05'5 9.6
2018-Jun-16 07:56N 17°52' W 063°05'510.6
2018-Jun-16 07:28N 17°47' W 063°05'511.0
2018-Jun-16 06:59N 17°42' W 063°05'610.9
2018-Jun-16 06:25N 17°36' W 063°06'612.0
2018-Jun-16 05:56N 17°30' W 063°06'2310.4
2018-Jun-16 03:41N 17°12' W 063°22'312.2
2018-Jun-16 03:29N 17°12' W 063°24'  
Track history (hours):
 
Tides and Currents Weather Stations Pressure Air Temp Water Temp Dewpoint Dewpoint Depression Visibility Wind Speed Wind Dir Waves Ship Positions

Bc Singapore

Last reported at 2018-Jun-19 04:53 UTC. Time now 2018-Jun-25 19:37 UTC.
Position N 14°16' W 061°14'.

Length 148 m; draft 8.3 m.

Type: Ship (hazmat cat C). MMSI: 305548000.

Date/timePositionNaut miles runAvg speedWind from/ knotsBaromVisibWave heightAir tempDewpointWater temp
2018-Jun-19 04:53N 14°16' W 061°14'512.6
2018-Jun-19 04:30N 14°21' W 061°12'611.7
2018-Jun-19 04:01N 14°26' W 061°11'510.9
2018-Jun-19 03:31N 14°31' W 061°09'510.1
2018-Jun-19 03:00N 14°35' W 061°05'2 3.7
2018-Jun-19 02:30N 14°36' W 061°03'0 0.0
2018-Jun-19 02:00N 14°36' W 061°03'0 0.0
2018-Jun-19 01:18N 14°36' W 061°03'0 0.0
2018-Jun-19 00:36N 14°36' W 061°03'0 0.1
2018-Jun-19 00:24N 14°36' W 061°03'0 0.0
2018-Jun-19 00:00N 14°36' W 061°03'0 0.0
2018-Jun-18 23:30N 14°36' W 061°03'0 0.0
2018-Jun-18 23:00N 14°36' W 061°03'0 0.0
2018-Jun-18 22:30N 14°36' W 061°03'0 0.0
2018-Jun-18 22:00N 14°36' W 061°03'0 0.0
2018-Jun-18 21:30N 14°36' W 061°03'0 0.0
2018-Jun-18 21:00N 14°36' W 061°03'0 0.0
2018-Jun-18 20:27N 14°36' W 061°03'0 0.0
2018-Jun-18 20:00N 14°36' W 061°03'0 0.0
2018-Jun-18 19:27N 14°36' W 061°03'0 0.0
2018-Jun-18 19:00N 14°36' W 061°03'0 0.0
2018-Jun-18 18:30N 14°36' W 061°03'0 0.0
2018-Jun-18 18:00N 14°36' W 061°03'0 0.0
2018-Jun-18 17:30N 14°36' W 061°03'0 0.0
2018-Jun-18 17:00N 14°36' W 061°03'0 0.0
2018-Jun-18 16:30N 14°36' W 061°03'0 0.0
2018-Jun-18 16:00N 14°36' W 061°03'0 0.0
2018-Jun-18 15:30N 14°36' W 061°03'0 0.0
2018-Jun-18 14:54N 14°36' W 061°03'0 0.0
2018-Jun-18 14:30N 14°36' W 061°03'0 0.0
2018-Jun-18 14:00N 14°36' W 061°03'0 0.0
2018-Jun-18 13:30N 14°36' W 061°03'0 0.0
2018-Jun-18 13:00N 14°36' W 061°03'0 0.0
2018-Jun-18 12:30N 14°36' W 061°03'0 0.0
2018-Jun-18 12:00N 14°36' W 061°03'0 0.0
2018-Jun-18 11:21N 14°36' W 061°03'0 0.0
2018-Jun-18 11:00N 14°36' W 061°03'0 0.0
2018-Jun-18 10:30N 14°36' W 061°03'0 0.2
2018-Jun-18 10:00N 14°35' W 061°03'2 4.7
2018-Jun-18 09:30N 14°35' W 061°06'2 4.3
2018-Jun-18 09:00N 14°35' W 061°08'2 4.2
2018-Jun-18 08:30N 14°35' W 061°10'3 4.1
2018-Jun-18 07:52N 14°35' W 061°13'2 5.3
2018-Jun-18 07:30N 14°35' W 061°15'4 7.0
2018-Jun-18 07:00N 14°35' W 061°18'3 6.8
2018-Jun-18 06:30N 14°36' W 061°22'3 6.7
2018-Jun-18 06:00N 14°37' W 061°25'510.0
2018-Jun-18 05:30N 14°42' W 061°26'167 8.9
2018-Jun-17 10:42N 17°07' W 062°52'2 9.4
2018-Jun-17 10:29N 17°09' W 062°53'6 9.6
2018-Jun-17 09:53N 17°14' W 062°56'8 9.5
2018-Jun-17 08:59N 17°21' W 063°01'5 9.4
2018-Jun-17 08:30N 17°25' W 063°03'6 9.1
2018-Jun-17 07:51N 17°31' W 063°05'4 9.6
2018-Jun-17 07:29N 17°34' W 063°05'5 9.7
2018-Jun-17 06:57N 17°39' W 063°05'4 9.5
2018-Jun-17 06:30N 17°44' W 063°05'5 9.3
2018-Jun-17 06:00N 17°48' W 063°05'5 9.3
2018-Jun-17 05:27N 17°53' W 063°05'5 9.3
2018-Jun-17 04:58N 17°58' W 063°05'3 7.2
2018-Jun-17 04:30N 18°00' W 063°03'0 0.6
2018-Jun-17 03:52N 18°01' W 063°03'0 0.0
2018-Jun-17 03:22N 18°01' W 063°03'0 0.0
2018-Jun-17 02:40N 18°01' W 063°03'0 0.0
2018-Jun-17 01:22N 18°01' W 063°03'0 0.0
2018-Jun-17 00:52N 18°01' W 063°03'0 0.0
2018-Jun-17 00:25N 18°01' W 063°03'0 0.0
2018-Jun-16 23:55N 18°01' W 063°03'0 0.0
2018-Jun-16 22:41N 18°01' W 063°03'0 0.0
2018-Jun-16 22:25N 18°01' W 063°03'0 0.0
2018-Jun-16 21:58N 18°01' W 063°03'0 0.0
2018-Jun-16 21:28N 18°01' W 063°03'0 0.0
2018-Jun-16 20:58N 18°01' W 063°03'0 0.0
2018-Jun-16 20:25N 18°01' W 063°03'0 0.0
2018-Jun-16 19:01N 18°01' W 063°03'0 0.0
2018-Jun-16 18:13N 18°01' W 063°03'0 0.0
2018-Jun-16 17:58N 18°01' W 063°03'0 0.0
2018-Jun-16 17:04N 18°01' W 063°03'0 0.0
2018-Jun-16 16:58N 18°01' W 063°03'0 0.0
2018-Jun-16 16:28N 18°01' W 063°03'0 0.0
2018-Jun-16 15:34N 18°01' W 063°03'0 0.0
2018-Jun-16 15:19N 18°01' W 063°03'0 0.0
2018-Jun-16 14:46N 18°01' W 063°03'0 0.0
2018-Jun-16 14:22N 18°01' W 063°03'0 0.0
2018-Jun-16 13:52N 18°01' W 063°03'0 0.0
2018-Jun-16 13:22N 18°01' W 063°03'0 0.0
2018-Jun-16 12:52N 18°01' W 063°03'0 0.0
2018-Jun-16 12:22N 18°01' W 063°03'0 0.0
2018-Jun-16 11:52N 18°01' W 063°03'0 0.0
2018-Jun-16 11:22N 18°01' W 063°03'0 0.0
2018-Jun-16 10:55N 18°01' W 063°03'0 0.0
2018-Jun-16 10:25N 18°01' W 063°03'0 0.0
2018-Jun-16 09:49N 18°01' W 063°03'0 0.0
2018-Jun-16 09:25N 18°01' W 063°03'2 4.1
2018-Jun-16 08:56N 18°00' W 063°05'3 6.6
2018-Jun-16 08:30N 17°57' W 063°05'5 9.6
2018-Jun-16 07:56N 17°52' W 063°05'510.6
2018-Jun-16 07:28N 17°47' W 063°05'511.0
2018-Jun-16 06:59N 17°42' W 063°05'610.9
2018-Jun-16 06:25N 17°36' W 063°06'612.0
2018-Jun-16 05:56N 17°30' W 063°06'2310.4
2018-Jun-16 03:41N 17°12' W 063°22'312.2
2018-Jun-16 03:29N 17°12' W 063°24'  

Dump ship's entire track history